Time;durP1;ratioP1;P1;durP2;ratioP2;P2;SDS_P1;SDS_P2;PMS_P1;PMS_P2;Temp;Humidity;BMP_temperature;BMP_pressure;BME280_temperature;BME280_humidity;BME280_pressure;Samples;Min_cycle;Max_cycle;Signal;HPM_P1;HPM_P2
2022/06/06 00:02:11;;;;;;;13.95;9.43;;;23.10;76.60;;;;;;1923244;74;21029;-60
2022/06/06 00:04:41;;;;;;;16.17;10.72;;;23.10;76.70;;;;;;1923003;74;21091;-60
2022/06/06 00:07:10;;;;;;;13.68;9.25;;;23.10;76.60;;;;;;1923029;74;20994;-60
2022/06/06 00:09:40;;;;;;;13.45;9.63;;;23.00;76.70;;;;;;1922979;74;21021;-60
2022/06/06 00:12:09;;;;;;;12.73;8.35;;;22.90;77.00;;;;;;1922987;74;21041;-60
2022/06/06 00:14:38;;;;;;;11.03;7.47;;;22.90;77.40;;;;;;1922956;74;21107;-60
2022/06/06 00:17:08;;;;;;;13.45;8.58;;;22.90;77.60;;;;;;1923072;74;21029;-60
2022/06/06 00:19:36;;;;;;;10.65;7.83;;;23.00;77.90;;;;;;1922989;73;21087;-60
2022/06/06 00:22:06;;;;;;;11.55;9.38;;;23.00;78.00;;;;;;1922929;74;21025;-60
2022/06/06 00:24:35;;;;;;;15.03;8.48;;;23.10;77.90;;;;;;1912643;74;21049;-60
2022/06/06 00:27:05;;;;;;;12.88;9.73;;;23.10;77.90;;;;;;1910466;75;20993;-60
2022/06/06 00:29:35;;;;;;;14.65;9.68;;;23.20;77.80;;;;;;1910651;75;21037;-60
2022/06/06 00:34:53;;;;;;;17.70;10.00;;;23.20;77.40;;;;;;1910619;75;21006;-60
2022/06/06 00:37:25;;;;;;;18.17;9.28;;;23.10;77.30;;;;;;1910794;75;21087;-60
2022/06/06 00:39:55;;;;;;;10.55;9.15;;;23.10;77.60;;;;;;1910779;75;21033;-60
2022/06/06 00:42:33;;;;;;;13.38;9.18;;;23.10;77.80;;;;;;1910571;75;21491;-60
2022/06/06 00:45:23;;;;;;;14.23;8.43;;;23.10;77.80;;;;;;1910649;75;21013;-60
2022/06/06 00:47:55;;;;;;;13.03;10.40;;;23.10;78.00;;;;;;1910222;74;21466;-60
2022/06/06 00:50:35;;;;;;;13.28;9.45;;;23.10;77.70;;;;;;1910707;74;21159;-60
2022/06/06 00:53:06;;;;;;;12.35;9.68;;;23.10;77.70;;;;;;1909719;73;21022;-60
2022/06/06 00:55:38;;;;;;;16.50;9.68;;;23.10;77.70;;;;;;1910678;75;21013;-60
2022/06/06 00:58:09;;;;;;;16.05;9.20;;;23.10;77.50;;;;;;1910692;75;21012;-60
2022/06/06 01:00:57;;;;;;;12.88;9.55;;;23.00;77.40;;;;;;1910715;74;21606;-61
2022/06/06 01:03:29;;;;;;;16.57;10.13;;;23.00;77.40;;;;;;1821790;79;21055;-60
2022/06/06 01:05:59;;;;;;;13.93;10.35;;;22.90;77.40;;;;;;1821731;78;21043;-60
2022/06/06 01:08:29;;;;;;;12.58;9.05;;;22.80;77.40;;;;;;1821863;78;21046;-60
2022/06/06 01:10:58;;;;;;;11.38;9.45;;;22.70;77.70;;;;;;1821802;78;21059;-60
2022/06/06 01:13:28;;;;;;;11.25;9.80;;;22.60;78.00;;;;;;1821773;78;21078;-60
2022/06/06 01:16:12;;;;;;;12.90;8.43;;;22.70;78.30;;;;;;1821731;78;21067;-61
2022/06/06 01:19:04;;;;;;;13.05;8.75;;;22.70;78.50;;;;;;1821771;79;21141;-60
2022/06/06 01:21:54;;;;;;;13.03;9.53;;;22.70;78.50;;;;;;1796837;79;21117;-61
2022/06/06 01:24:47;;;;;;;16.75;9.43;;;22.80;78.30;;;;;;1821162;79;21075;-60
2022/06/06 01:27:42;;;;;;;10.43;8.68;;;22.80;77.90;;;;;;1820993;77;21062;-60
2022/06/06 01:30:14;;;;;;;10.03;8.53;;;22.80;78.10;;;;;;1792717;79;21137;-60
2022/06/06 01:32:52;;;;;;;12.20;8.95;;;22.80;78.40;;;;;;1820741;79;21106;-60
2022/06/06 01:35:35;;;;;;;15.38;8.93;;;22.80;78.90;;;;;;1821416;78;21106;-61
2022/06/06 01:38:05;;;;;;;16.32;9.25;;;22.80;78.70;;;;;;1821797;79;21043;-60
2022/06/06 01:40:46;;;;;;;15.13;9.70;;;22.80;78.50;;;;;;1821685;79;21074;-60
2022/06/06 01:43:17;;;;;;;11.70;9.25;;;22.80;78.50;;;;;;1815091;77;21051;-60
2022/06/06 01:45:52;;;;;;;15.53;10.85;;;22.70;78.80;;;;;;1821808;78;21087;-60
2022/06/06 01:48:24;;;;;;;13.32;9.08;;;22.70;78.90;;;;;;1821874;79;21121;-60
2022/06/06 01:50:53;;;;;;;14.30;8.38;;;22.70;78.90;;;;;;1821735;79;21145;-60
2022/06/06 01:53:24;;;;;;;15.68;9.33;;;22.70;79.00;;;;;;1821754;79;21117;-60
2022/06/06 01:55:54;;;;;;;9.83;8.75;;;22.70;79.20;;;;;;1821729;78;21126;-60
2022/06/06 01:58:29;;;;;;;15.08;9.75;;;22.80;79.30;;;;;;1821829;77;21030;-60
2022/06/06 02:00:58;;;;;;;13.40;8.98;;;22.80;79.20;;;;;;1821711;77;21059;-60
2022/06/06 02:03:28;;;;;;;12.55;9.65;;;22.80;79.00;;;;;;1823951;77;21073;-60
2022/06/06 02:05:57;;;;;;;13.00;8.68;;;22.80;79.10;;;;;;1824459;79;21038;-60
2022/06/06 02:08:26;;;;;;;11.80;8.88;;;22.80;78.90;;;;;;1824342;77;21057;-60
2022/06/06 02:10:55;;;;;;;13.32;8.93;;;22.80;79.10;;;;;;1824519;79;21097;-60
2022/06/06 02:13:25;;;;;;;13.20;10.23;;;22.80;79.20;;;;;;1824296;79;21034;-60
2022/06/06 02:15:54;;;;;;;13.43;9.15;;;22.80;79.00;;;;;;1824299;79;21038;-60
2022/06/06 02:18:24;;;;;;;19.02;10.20;;;22.90;79.10;;;;;;1824401;79;21108;-60
2022/06/06 02:20:54;;;;;;;13.20;9.73;;;22.90;79.00;;;;;;1824398;77;21142;-60
2022/06/06 02:23:24;;;;;;;15.10;9.75;;;22.90;78.90;;;;;;1824610;77;21448;-60
2022/06/06 02:25:54;;;;;;;13.15;8.80;;;22.90;79.40;;;;;;1824324;78;21067;-60
2022/06/06 02:28:24;;;;;;;14.90;9.80;;;22.90;78.60;;;;;;1824414;77;21050;-60
2022/06/06 02:30:53;;;;;;;15.45;11.35;;;22.90;78.60;;;;;;1824394;77;21041;-60
2022/06/06 02:33:22;;;;;;;12.50;9.23;;;22.90;78.40;;;;;;1824316;77;21037;-60
2022/06/06 02:35:51;;;;;;;15.08;9.20;;;22.90;78.40;;;;;;1824320;79;21077;-60
2022/06/06 02:38:21;;;;;;;12.40;8.98;;;23.00;78.40;;;;;;1824299;77;21063;-60
2022/06/06 02:40:50;;;;;;;13.38;9.00;;;23.00;78.20;;;;;;1824391;77;21029;-60
2022/06/06 02:43:21;;;;;;;18.30;8.83;;;23.00;78.20;;;;;;1824393;79;21014;-60
2022/06/06 02:45:50;;;;;;;14.00;8.80;;;23.00;78.40;;;;;;1824291;79;21030;-60
2022/06/06 02:48:19;;;;;;;20.12;9.83;;;23.10;78.40;;;;;;1824292;79;21469;-60
2022/06/06 02:50:49;;;;;;;12.88;8.00;;;23.20;78.20;;;;;;1824248;79;21049;-60
2022/06/06 02:53:18;;;;;;;12.07;9.25;;;23.20;78.00;;;;;;1824301;78;21034;-60
2022/06/06 02:55:47;;;;;;;14.40;8.80;;;23.20;78.00;;;;;;1824283;79;21464;-60
2022/06/06 02:58:16;;;;;;;10.58;8.75;;;23.30;78.00;;;;;;1824370;77;21128;-60
2022/06/06 03:00:46;;;;;;;11.68;9.40;;;23.30;78.00;;;;;;1824211;79;21042;-60
2022/06/06 03:03:16;;;;;;;12.23;9.08;;;23.30;77.70;;;;;;1834072;77;21257;-60
2022/06/06 03:06:01;;;;;;;13.85;8.48;;;23.30;77.60;;;;;;1844647;78;21038;-60
2022/06/06 03:08:45;;;;;;;11.73;9.15;;;23.30;77.60;;;;;;1844726;78;21055;-60
2022/06/06 03:11:23;;;;;;;10.87;8.30;;;23.30;77.90;;;;;;1844982;78;21062;-60
2022/06/06 03:14:00;;;;;;;14.80;8.83;;;23.30;78.10;;;;;;1844322;77;21484;-60
2022/06/06 03:22:40;;;;;;;13.65;9.25;;;23.40;78.00;;;;;;1844768;77;21073;-60
2022/06/06 03:25:30;;;;;;;17.12;9.53;;;23.40;77.90;;;;;;1844742;76;21066;-60
2022/06/06 03:28:03;;;;;;;17.20;9.63;;;23.50;77.80;;;;;;1844844;77;21070;-60
2022/06/06 03:30:37;;;;;;;11.70;9.00;;;23.50;77.80;;;;;;1844857;76;21516;-60
2022/06/06 03:33:18;;;;;;;13.30;9.65;;;23.50;78.50;;;;;;1844210;76;21132;-60
2022/06/06 03:35:52;;;;;;;13.03;10.35;;;23.50;78.00;;;;;;1843424;77;21112;-60
2022/06/06 03:38:46;;;;;;;15.65;10.32;;;23.40;78.30;;;;;;1844628;76;21080;-60
2022/06/06 03:41:33;;;;;;;15.68;10.98;;;23.40;78.60;;;;;;1853952;77;21054;-60
2022/06/06 03:44:21;;;;;;;12.55;10.08;;;23.30;78.80;;;;;;1853640;75;21089;-60
2022/06/06 03:46:55;;;;;;;16.57;10.95;;;23.30;79.00;;;;;;1853801;77;21029;-60
2022/06/06 03:49:46;;;;;;;16.05;11.00;;;23.30;79.20;;;;;;1852437;74;21100;-60
2022/06/06 03:52:26;;;;;;;16.42;11.08;;;23.30;79.40;;;;;;1853491;77;21057;-60
2022/06/06 03:55:07;;;;;;;16.50;12.15;;;23.30;79.40;;;;;;1852864;74;21144;-60
2022/06/06 03:57:39;;;;;;;18.20;13.28;;;23.30;79.50;;;;;;1853970;77;21103;-60
2022/06/06 04:00:15;;;;;;;25.50;12.95;;;23.30;79.50;;;;;;1853939;77;21014;-60
2022/06/06 04:02:42;;;;;;;20.60;12.20;;;23.30;79.60;;;;;;1853512;76;21521;-60
2022/06/06 04:05:14;;;;;;;16.40;12.35;;;23.30;79.90;;;;;;1853908;77;21089;-61
2022/06/06 04:07:43;;;;;;;18.98;11.48;;;23.40;79.80;;;;;;1854075;77;21053;-60
2022/06/06 04:10:14;;;;;;;23.70;14.58;;;23.40;79.80;;;;;;1853880;77;21029;-60
2022/06/06 04:13:17;;;;;;;24.35;14.13;;;23.40;79.80;;;;;;1854178;77;21010;-60
2022/06/06 04:15:53;;;;;;;30.77;14.20;;;23.40;79.70;;;;;;1823993;77;21134;-60
2022/06/06 04:18:53;;;;;;;23.65;16.32;;;23.40;80.10;;;;;;1845563;77;21472;-60
2022/06/06 04:21:40;;;;;;;37.65;18.65;;;23.50;80.30;;;;;;1853999;77;21030;-60
2022/06/06 04:24:27;;;;;;;21.45;14.23;;;23.60;80.10;;;;;;1853828;75;21042;-60
2022/06/06 04:27:15;;;;;;;20.70;12.03;;;23.80;79.90;;;;;;1853372;77;21198;-60
2022/06/06 04:29:47;;;;;;;19.35;13.03;;;23.80;79.50;;;;;;1853908;76;21154;-61
2022/06/06 04:32:19;;;;;;;19.27;12.20;;;23.90;79.80;;;;;;1853758;77;21057;-61
2022/06/06 04:35:05;;;;;;;19.32;11.28;;;23.90;79.80;;;;;;1844507;77;21119;-60
2022/06/06 04:37:39;;;;;;;14.13;9.25;;;23.90;80.00;;;;;;1854160;77;21009;-61
2022/06/06 04:40:23;;;;;;;11.95;9.98;;;23.90;80.10;;;;;;1853690;77;21140;-61
2022/06/06 04:42:55;;;;;;;15.83;9.43;;;24.00;79.40;;;;;;1853706;77;21069;-61
2022/06/06 04:45:27;;;;;;;15.65;9.93;;;24.10;79.20;;;;;;1853814;76;21462;-61
2022/06/06 04:47:58;;;;;;;11.75;9.50;;;24.20;78.70;;;;;;1853816;77;21448;-60
2022/06/06 04:50:27;;;;;;;12.58;8.40;;;24.20;78.60;;;;;;1854045;77;21013;-60
2022/06/06 04:53:02;;;;;;;11.08;8.15;;;24.40;78.50;;;;;;1853955;76;21123;-60
2022/06/06 04:55:33;;;;;;;12.70;9.48;;;24.50;77.50;;;;;;1853921;75;21010;-60
2022/06/06 04:58:04;;;;;;;11.45;9.38;;;24.50;77.30;;;;;;1854068;77;21069;-60
2022/06/06 05:00:37;;;;;;;14.68;8.78;;;24.50;77.40;;;;;;1853950;76;21041;-61
2022/06/06 05:03:07;;;;;;;14.23;10.00;;;24.60;77.50;;;;;;1854174;77;21037;-60
2022/06/06 05:05:44;;;;;;;14.07;9.00;;;24.60;77.40;;;;;;1854021;77;21089;-60
2022/06/06 05:08:48;;;;;;;13.40;8.95;;;24.80;77.40;;;;;;1836081;77;21045;-60
2022/06/06 05:11:38;;;;;;;14.85;9.18;;;25.00;77.20;;;;;;1853907;77;21099;-60
2022/06/06 05:14:16;;;;;;;13.25;9.83;;;25.10;76.60;;;;;;1853083;77;21049;-60
2022/06/06 05:16:59;;;;;;;14.68;9.00;;;25.30;76.30;;;;;;1853569;76;21159;-60
2022/06/06 05:19:46;;;;;;;12.73;9.33;;;25.30;76.30;;;;;;1853818;77;21029;-61
2022/06/06 05:22:42;;;;;;;14.58;9.00;;;25.40;76.00;;;;;;1853024;76;21057;-60
2022/06/06 05:25:34;;;;;;;8.98;7.95;;;25.50;75.50;;;;;;1853727;77;21025;-60
2022/06/06 05:28:27;;;;;;;14.63;8.88;;;25.50;75.50;;;;;;1853949;76;21116;-60
2022/06/06 05:31:07;;;;;;;17.35;9.45;;;25.50;75.70;;;;;;1853204;77;21116;-60
2022/06/06 05:33:39;;;;;;;10.82;9.50;;;25.50;75.60;;;;;;1853921;77;21151;-60
2022/06/06 05:36:32;;;;;;;14.18;9.75;;;25.50;75.20;;;;;;1852833;77;21038;-61
2022/06/06 05:39:31;;;;;;;12.95;8.25;;;25.50;75.10;;;;;;1853824;77;21041;-60
2022/06/06 05:42:24;;;;;;;12.93;9.50;;;25.70;75.30;;;;;;1852972;77;21100;-60
2022/06/06 05:45:14;;;;;;;11.70;9.18;;;25.80;75.10;;;;;;1856263;77;21031;-60
2022/06/06 05:48:01;;;;;;;13.68;9.75;;;25.70;74.70;;;;;;1855668;76;21107;-60
2022/06/06 05:50:48;;;;;;;19.55;11.33;;;25.80;75.50;;;;;;1855421;77;21092;-59
2022/06/06 05:53:43;;;;;;;15.23;10.43;;;26.00;74.70;;;;;;1856237;77;21033;-59
2022/06/06 05:56:42;;;;;;;10.03;8.75;;;26.20;74.10;;;;;;1856375;77;21112;-60
2022/06/06 05:59:20;;;;;;;11.65;9.40;;;26.20;73.20;;;;;;1855280;76;21111;-59
2022/06/06 06:02:07;;;;;;;13.90;9.78;;;26.10;73.20;;;;;;1855116;77;21061;-60
2022/06/06 06:04:54;;;;;;;12.53;9.45;;;26.10;73.60;;;;;;1856171;77;21069;-60
2022/06/06 06:07:35;;;;;;;13.25;8.78;;;26.10;73.60;;;;;;1855413;77;21119;-60
2022/06/06 06:10:13;;;;;;;16.60;9.60;;;26.10;73.70;;;;;;1855099;77;21099;-60
2022/06/06 06:13:00;;;;;;;23.47;12.30;;;26.10;73.60;;;;;;1856283;77;21022;-60
2022/06/06 06:15:43;;;;;;;11.73;9.33;;;26.20;73.00;;;;;;1856132;77;21061;-59
2022/06/06 06:18:31;;;;;;;11.28;8.83;;;26.30;73.00;;;;;;1856267;77;21033;-60
2022/06/06 06:21:15;;;;;;;20.65;8.78;;;26.30;72.80;;;;;;1856290;77;21053;-60
2022/06/06 06:23:49;;;;;;;13.32;8.45;;;26.30;72.70;;;;;;1856264;76;21045;-61
2022/06/06 06:26:18;;;;;;;14.10;8.08;;;26.30;72.70;;;;;;1854563;77;21061;-61
2022/06/06 06:28:49;;;;;;;15.53;9.48;;;26.30;72.80;;;;;;1856129;77;21103;-61
2022/06/06 06:31:23;;;;;;;13.08;9.03;;;26.40;72.50;;;;;;1856301;77;21037;-61
2022/06/06 06:34:09;;;;;;;;;;;26.50;72.30;;;;;;1857505;77;21127;-61
2022/06/06 06:37:12;;;;;;;20.08;9.78;;;26.50;72.00;;;;;;1856167;77;20107;-61
2022/06/06 06:39:44;;;;;;;39.18;30.20;;;26.40;72.00;;;;;;1856315;77;21115;-61
2022/06/06 06:42:28;;;;;;;9.65;7.95;;;26.30;72.20;;;;;;1856036;76;21061;-60
2022/06/06 06:45:03;;;;;;;10.30;7.70;;;26.30;72.10;;;;;;1856384;77;21061;-61
2022/06/06 06:47:33;;;;;;;;;;;26.30;72.10;;;;;;1858658;76;21113;-60
2022/06/06 06:50:19;;;;;;;8.15;6.42;;;26.30;72.30;;;;;;1856480;77;20154;-60
2022/06/06 06:52:59;;;;;;;8.33;6.83;;;26.30;72.00;;;;;;1855792;76;21045;-61
2022/06/06 06:55:34;;;;;;;9.55;6.20;;;26.40;71.80;;;;;;1856147;77;21050;-60
2022/06/06 07:01:12;;;;;;;9.65;5.60;;;26.80;70.60;;;;;;1856275;77;21456;-60
2022/06/06 07:10:14;;;;;;;7.85;5.45;;;27.10;68.90;;;;;;1856249;77;21053;-60
2022/06/06 07:12:55;;;;;;;9.95;5.40;;;27.20;69.40;;;;;;1855639;77;21100;-60
2022/06/06 07:15:30;;;;;;;9.35;4.92;;;27.30;68.60;;;;;;1856261;77;21111;-60
2022/06/06 07:18:05;;;;;;;7.42;5.47;;;27.40;68.40;;;;;;1855331;77;21158;-60
2022/06/06 07:20:36;;;;;;;7.72;4.83;;;27.40;67.80;;;;;;1856304;77;21483;-60
2022/06/06 07:23:11;;;;;;;7.72;5.65;;;27.40;68.00;;;;;;1856209;77;21095;-60
2022/06/06 07:25:47;;;;;;;6.87;5.20;;;27.40;67.90;;;;;;1856085;77;21031;-60
2022/06/06 07:28:24;;;;;;;5.72;4.53;;;27.40;67.70;;;;;;1856074;77;21037;-61
2022/06/06 07:31:23;;;;;;;6.25;4.53;;;27.40;67.10;;;;;;1856050;77;21080;-59
2022/06/06 07:34:07;;;;;;;7.67;5.75;;;27.40;67.20;;;;;;1856205;77;21085;-60
2022/06/06 07:39:50;;;;;;;5.80;4.08;;;27.50;65.90;;;;;;1810848;78;21197;-60
2022/06/06 07:42:43;;;;;;;8.28;4.25;;;27.60;65.90;;;;;;1810835;79;21511;-60
2022/06/06 07:45:27;;;;;;;10.28;4.50;;;27.70;65.60;;;;;;1810888;79;21033;-60
2022/06/06 07:48:20;;;;;;;10.78;5.00;;;27.80;64.80;;;;;;1810231;78;21112;-60
2022/06/06 07:51:09;;;;;;;8.95;4.55;;;27.80;64.70;;;;;;1786038;79;21177;-60
2022/06/06 07:53:55;;;;;;;9.05;4.37;;;27.90;64.70;;;;;;1810730;79;21033;-60
2022/06/06 07:56:27;;;;;;;14.20;4.55;;;28.00;64.60;;;;;;1810616;77;21115;-60
2022/06/06 08:02:05;;;;;;;10.78;3.98;;;28.10;63.80;;;;;;1798288;78;21077;-60
2022/06/06 08:04:39;;;;;;;7.70;4.35;;;28.00;63.50;;;;;;1798304;80;21623;-60
2022/06/06 08:07:24;;;;;;;;;;;28.00;63.60;;;;;;1800996;80;21487;-61
2022/06/06 08:10:22;;;;;;;25.92;4.83;;;28.00;63.30;;;;;;1796875;80;20115;-60
2022/06/06 08:12:55;;;;;;;6.40;3.37;;;28.10;64.00;;;;;;1798198;77;21134;-60
2022/06/06 08:15:33;;;;;;;6.37;3.85;;;28.20;63.30;;;;;;1797798;80;21126;-61
2022/06/06 08:18:33;;;;;;;6.87;4.15;;;28.30;63.20;;;;;;1798260;79;21067;-60
2022/06/06 08:21:08;;;;;;;8.80;4.00;;;28.40;62.60;;;;;;1798238;79;21131;-61
2022/06/06 08:23:38;;;;;;;8.73;3.77;;;28.40;62.20;;;;;;1796328;79;21209;-57
2022/06/06 08:26:09;;;;;;;8.78;4.50;;;28.40;62.10;;;;;;1797543;80;21048;-57
2022/06/06 08:28:40;;;;;;;20.32;10.53;;;28.50;62.70;;;;;;1797805;80;21060;-56
2022/06/06 08:31:10;;;;;;;9.78;4.65;;;28.50;61.70;;;;;;1797561;80;21095;-56
2022/06/06 08:33:39;;;;;;;7.33;5.12;;;28.50;61.10;;;;;;1797550;80;21107;-61
2022/06/06 08:36:14;;;;;;;7.33;3.70;;;28.50;60.80;;;;;;1797740;80;21092;-59
2022/06/06 08:38:54;;;;;;;8.40;4.40;;;28.60;60.20;;;;;;1797433;78;21053;-57
2022/06/06 08:41:58;;;;;;;13.30;3.95;;;28.60;60.00;;;;;;1797832;80;21557;-57
2022/06/06 08:45:03;;;;;;;7.60;3.60;;;28.50;61.00;;;;;;1797770;80;21112;-58
2022/06/06 08:47:55;;;;;;;7.12;3.62;;;28.60;60.60;;;;;;1797774;80;21126;-59
2022/06/06 08:50:47;;;;;;;8.10;4.33;;;28.70;60.30;;;;;;1797719;80;21120;-60
2022/06/06 08:53:36;;;;;;;4.92;3.65;;;28.70;59.60;;;;;;1797606;80;21048;-63
2022/06/06 08:56:11;;;;;;;4.90;3.20;;;28.70;59.70;;;;;;1789482;79;21115;-57
2022/06/06 08:59:15;;;;;;;7.50;3.65;;;28.80;59.30;;;;;;1796722;79;21028;-59
2022/06/06 09:01:50;;;;;;;3.75;3.17;;;28.70;58.80;;;;;;1793547;79;21535;-59
2022/06/06 09:04:55;;;;;;;5.17;3.52;;;28.70;58.90;;;;;;1792170;80;21100;-59
2022/06/06 09:07:40;;;;;;;;;;;28.80;58.50;;;;;;1794954;80;21053;-61
2022/06/06 09:10:30;;;;;;;10.53;4.10;;;28.70;57.50;;;;;;1792326;80;20144;-62
2022/06/06 09:13:11;;;;;;;6.95;3.62;;;28.70;58.20;;;;;;1792547;79;21053;-61
2022/06/06 09:16:00;;;;;;;6.30;3.20;;;28.80;58.20;;;;;;1792235;79;21105;-60
2022/06/06 09:18:51;;;;;;;6.90;3.02;;;28.80;57.40;;;;;;1792329;80;21049;-58
2022/06/06 09:21:41;;;;;;;14.45;4.87;;;28.90;56.30;;;;;;1790620;77;21487;-59
2022/06/06 09:24:18;;;;;;;7.17;4.10;;;28.90;57.00;;;;;;1792018;79;21017;-61
2022/06/06 09:27:09;;;;;;;6.42;4.05;;;29.00;57.10;;;;;;1792082;80;21158;-60
2022/06/06 09:30:14;;;;;;;15.93;4.17;;;29.00;57.20;;;;;;1784429;79;21104;-60
2022/06/06 09:32:55;;;;;;;4.65;3.67;;;29.20;56.90;;;;;;1792262;80;21055;-59
2022/06/06 09:35:35;;;;;;;6.72;3.62;;;29.30;57.20;;;;;;1792313;78;21150;-58
2022/06/06 09:38:13;;;;;;;8.03;3.90;;;29.40;56.50;;;;;;1792135;79;21116;-57
2022/06/06 09:41:11;;;;;;;7.10;3.90;;;29.50;56.60;;;;;;1792088;80;21022;-60
2022/06/06 09:43:51;;;;;;;4.72;3.50;;;29.50;56.00;;;;;;1791140;80;21167;-61
2022/06/06 09:46:55;;;;;;;7.55;4.33;;;29.50;55.90;;;;;;1788534;78;21212;-60
2022/06/06 09:49:44;;;;;;;11.30;4.33;;;29.70;56.10;;;;;;1716511;83;21249;-58
2022/06/06 09:52:36;;;;;;;7.87;4.20;;;29.60;55.30;;;;;;1783631;79;21211;-60
2022/06/06 10:01:55;;;;;;;10.55;4.70;;;29.40;56.20;;;;;;1767115;80;21201;-60
2022/06/06 10:04:54;;;;;;;6.05;4.08;;;29.30;56.40;;;;;;1762423;81;21240;-59
2022/06/06 10:07:49;;;;;;;4.87;3.90;;;29.40;55.90;;;;;;1794139;78;21046;-58
2022/06/06 10:10:33;;;;;;;7.90;4.00;;;29.50;56.10;;;;;;1796235;78;21199;-58
2022/06/06 10:13:35;;;;;;;16.03;4.87;;;29.60;55.60;;;;;;1796427;80;21061;-59
2022/06/06 10:16:28;;;;;;;13.83;5.15;;;29.60;55.40;;;;;;1796221;80;21068;-59
2022/06/06 10:19:20;;;;;;;12.58;4.47;;;29.70;55.80;;;;;;1796088;80;21124;-59
2022/06/06 10:22:18;;;;;;;15.95;5.78;;;29.80;55.10;;;;;;1796024;79;21068;-60
2022/06/06 10:25:01;;;;;;;6.10;4.22;;;29.90;54.60;;;;;;1794858;79;21104;-59
2022/06/06 10:27:40;;;;;;;9.48;4.25;;;30.00;54.70;;;;;;1796054;79;21080;-60
2022/06/06 10:30:22;;;;;;;8.78;4.42;;;30.10;54.70;;;;;;1794846;80;21472;-61
2022/06/06 10:33:06;;;;;;;8.73;4.05;;;30.20;54.40;;;;;;1797717;78;21603;-60
2022/06/06 10:35:55;;;;;;;9.68;3.67;;;30.20;54.00;;;;;;1801444;78;21541;-58
2022/06/06 10:38:53;;;;;;;7.85;3.90;;;30.20;54.10;;;;;;1794825;80;21105;-64
2022/06/06 10:41:38;;;;;;;6.42;3.60;;;30.20;53.30;;;;;;1801641;78;21530;-60
2022/06/06 10:44:19;;;;;;;6.20;3.60;;;30.20;53.30;;;;;;1802466;79;21103;-62
2022/06/06 10:47:09;;;;;;;3.77;3.22;;;30.20;53.40;;;;;;1782379;79;21207;-61
2022/06/06 10:49:47;;;;;;;12.75;4.22;;;30.30;53.30;;;;;;1795566;79;21141;-59
2022/06/06 10:52:42;;;;;;;9.08;3.58;;;30.20;53.80;;;;;;1794156;78;21125;-62
2022/06/06 10:55:47;;;;;;;7.60;2.90;;;30.30;53.60;;;;;;1810091;78;21223;-63
2022/06/06 10:58:46;;;;;;;9.83;3.30;;;30.30;53.20;;;;;;1809522;78;21192;-63
2022/06/06 11:01:37;;;;;;;7.30;3.62;;;30.30;53.00;;;;;;1789575;79;21252;-59
2022/06/06 11:04:24;;;;;;;5.50;3.40;;;30.20;52.80;;;;;;1753777;81;21105;-61
2022/06/06 11:07:19;;;;;;;5.42;2.70;;;30.20;53.00;;;;;;1781929;80;21099;-61
2022/06/06 11:10:06;;;;;;;4.08;2.87;;;30.20;52.70;;;;;;1781078;79;21105;-62
2022/06/06 11:12:49;;;;;;;4.55;3.12;;;30.00;52.70;;;;;;1801793;79;21106;-60
2022/06/06 11:15:19;;;;;;;5.33;2.85;;;29.90;53.10;;;;;;1755831;80;21536;-58
2022/06/06 11:18:12;;;;;;;6.53;3.62;;;29.80;53.10;;;;;;1760781;81;21034;-60
2022/06/06 11:21:17;;;;;;;7.92;3.05;;;29.70;52.80;;;;;;1765049;81;21061;-60
2022/06/06 11:24:05;;;;;;;5.40;2.90;;;29.70;52.80;;;;;;1766873;81;21151;-64
2022/06/06 11:26:43;;;;;;;7.60;4.03;;;29.90;52.10;;;;;;1732486;82;21159;-61
2022/06/06 11:29:23;;;;;;;7.28;3.10;;;30.00;52.30;;;;;;1766484;80;21566;-61
2022/06/06 11:32:01;;;;;;;12.25;3.52;;;30.00;52.00;;;;;;1767495;80;21605;-59
2022/06/06 11:34:39;;;;;;;6.58;3.17;;;30.20;51.60;;;;;;1736578;81;21072;-59
2022/06/06 11:37:23;;;;;;;23.38;3.67;;;30.30;50.70;;;;;;1768291;81;21123;-58
2022/06/06 11:40:14;;;;;;;14.80;3.90;;;30.30;50.50;;;;;;1768282;80;21068;-59
2022/06/06 11:42:46;;;;;;;8.43;3.27;;;30.50;50.60;;;;;;1766076;80;21064;-58
2022/06/06 11:45:41;;;;;;;4.67;2.52;;;30.60;50.00;;;;;;1762950;80;21155;-58
2022/06/06 11:48:46;;;;;;;7.12;3.22;;;30.60;49.80;;;;;;1768330;80;21060;-58
2022/06/06 11:51:53;;;;;;;7.62;3.02;;;30.50;50.00;;;;;;1768375;80;21127;-59
2022/06/06 11:54:43;;;;;;;4.95;3.25;;;30.40;50.60;;;;;;1768250;81;21136;-59
2022/06/06 11:57:18;;;;;;;4.03;2.83;;;30.30;50.80;;;;;;1767856;80;21126;-60
2022/06/06 12:00:25;;;;;;;3.55;2.67;;;30.10;50.50;;;;;;1767190;79;21044;-60
2022/06/06 12:03:14;;;;;;;9.80;3.42;;;29.90;50.90;;;;;;1736073;81;21154;-59
2022/06/06 12:06:19;;;;;;;4.40;2.85;;;29.70;51.40;;;;;;1692357;82;21167;-59
2022/06/06 12:08:56;;;;;;;6.35;2.95;;;29.60;51.50;;;;;;1773819;80;21142;-59
2022/06/06 12:11:46;;;;;;;4.83;2.90;;;29.60;51.90;;;;;;1787486;76;21155;-59
2022/06/06 12:14:41;;;;;;;7.25;3.27;;;29.50;52.00;;;;;;1787810;80;21147;-59
2022/06/06 12:17:15;;;;;;;;;;;29.50;52.20;;;;;;1790341;79;21092;-59
2022/06/06 12:20:04;;;;;;;10.38;2.77;;;29.50;52.60;;;;;;1787547;79;20302;-60
2022/06/06 12:23:10;;;;;;;5.33;3.10;;;29.70;52.60;;;;;;1787608;79;21052;-60
2022/06/06 12:26:03;;;;;;;8.08;3.62;;;29.80;51.50;;;;;;1787655;80;21045;-59
2022/06/06 12:29:10;;;;;;;3.62;2.60;;;29.70;51.60;;;;;;1781976;78;21135;-60
2022/06/06 12:31:59;;;;;;;12.53;8.00;;;29.60;51.60;;;;;;1787761;80;21068;-59
2022/06/06 12:34:46;;;;;;;8.70;2.85;;;29.40;51.90;;;;;;1787874;78;21088;-59
2022/06/06 12:37:29;;;;;;;3.67;2.62;;;29.40;52.20;;;;;;1787526;77;21166;-59
2022/06/06 12:40:29;;;;;;;6.53;3.92;;;29.30;52.30;;;;;;1787931;80;21037;-59
2022/06/06 12:43:07;;;;;;;9.60;4.12;;;29.40;52.60;;;;;;1787942;80;21041;-59
2022/06/06 12:45:51;;;;;;;5.42;3.67;;;29.30;52.00;;;;;;1787738;79;21127;-59
2022/06/06 12:48:28;;;;;;;7.30;3.50;;;29.20;51.80;;;;;;1787310;76;21065;-59
2022/06/06 12:51:17;;;;;;;12.50;2.52;;;29.10;51.70;;;;;;1787872;80;21126;-59
2022/06/06 12:54:13;;;;;;;6.55;3.22;;;29.00;52.00;;;;;;1787774;80;21139;-59
2022/06/06 12:56:55;;;;;;;3.83;2.30;;;28.90;52.40;;;;;;1787282;78;21072;-59
2022/06/06 12:59:39;;;;;;;8.68;2.65;;;28.80;52.60;;;;;;1787774;80;21053;-59
2022/06/06 13:02:30;;;;;;;9.20;2.60;;;28.90;52.60;;;;;;1788778;79;21527;-59
2022/06/06 13:05:20;;;;;;;6.92;3.55;;;29.00;52.20;;;;;;1763158;81;21788;-59
2022/06/06 13:07:53;;;;;;;20.90;10.23;;;28.90;52.10;;;;;;1793480;80;21183;-59
2022/06/06 13:10:30;;;;;;;9.63;2.77;;;29.00;52.30;;;;;;1791871;80;21053;-59
2022/06/06 13:13:26;;;;;;;3.17;2.17;;;29.10;52.20;;;;;;1793003;79;21503;-59
2022/06/06 13:16:07;;;;;;;5.65;2.80;;;29.30;51.70;;;;;;1792998;78;21555;-59
2022/06/06 13:19:14;;;;;;;5.72;2.75;;;29.40;52.00;;;;;;1792675;78;21048;-59
2022/06/06 13:22:01;;;;;;;5.42;2.40;;;29.50;51.80;;;;;;1793325;79;21150;-59
2022/06/06 13:24:36;;;;;;;2.35;1.90;;;29.40;51.60;;;;;;1792550;76;21085;-59
2022/06/06 13:27:29;;;;;;;5.65;2.50;;;29.40;51.50;;;;;;1793340;80;21138;-59
2022/06/06 13:30:18;;;;;;;5.47;2.70;;;29.30;51.50;;;;;;1793308;80;21028;-59
2022/06/06 13:32:50;;;;;;;5.10;3.10;;;29.20;51.80;;;;;;1793353;80;21118;-59
2022/06/06 13:35:30;;;;;;;8.18;3.45;;;29.10;51.70;;;;;;1791606;79;21085;-59
2022/06/06 13:38:11;;;;;;;4.70;2.60;;;28.90;52.00;;;;;;1793351;80;21160;-59
2022/06/06 13:40:55;;;;;;;4.42;2.42;;;28.80;52.40;;;;;;1793360;80;21138;-59
2022/06/06 13:43:46;;;;;;;6.40;2.83;;;28.70;52.50;;;;;;1792286;78;21118;-59
2022/06/06 13:46:39;;;;;;;8.20;4.17;;;28.70;52.90;;;;;;1790730;78;21080;-59
2022/06/06 13:49:20;;;;;;;5.28;3.17;;;28.60;53.10;;;;;;1793452;80;21052;-59
2022/06/06 13:52:07;;;;;;;6.33;3.00;;;28.50;53.00;;;;;;1792796;78;21053;-59
2022/06/06 13:54:38;;;;;;;6.60;3.10;;;28.50;53.40;;;;;;1792098;78;21174;-59
2022/06/06 13:57:10;;;;;;;5.75;3.98;;;28.50;53.50;;;;;;1793488;80;21060;-59
2022/06/06 14:00:03;;;;;;;7.15;3.55;;;28.40;53.70;;;;;;1793272;80;21507;-59
2022/06/06 14:03:09;;;;;;;8.88;4.45;;;28.40;53.80;;;;;;1789756;79;21055;-59
2022/06/06 14:06:04;;;;;;;6.75;4.28;;;28.40;53.90;;;;;;1711473;80;21134;-58
2022/06/06 14:08:48;;;;;;;7.22;3.90;;;28.40;54.00;;;;;;1710809;83;21121;-59
2022/06/06 14:11:19;;;;;;;6.35;2.98;;;28.40;53.90;;;;;;1731111;82;21068;-58
2022/06/06 14:13:57;;;;;;;4.92;2.75;;;28.40;53.90;;;;;;1743756;82;21599;-59
2022/06/06 14:16:28;;;;;;;2.92;2.50;;;28.50;53.70;;;;;;1773439;80;21197;-59
2022/06/06 14:19:01;;;;;;;4.35;2.33;;;28.60;53.60;;;;;;1773808;81;21115;-59
2022/06/06 14:21:33;;;;;;;4.97;3.05;;;28.60;53.50;;;;;;1773472;80;21075;-59
2022/06/06 14:24:13;;;;;;;5.92;3.12;;;28.60;53.50;;;;;;1773747;80;21604;-59
2022/06/06 14:26:45;;;;;;;4.53;3.10;;;28.60;53.60;;;;;;1773714;80;21096;-59